sensor_id;sensor_type;location;lat;lon;timestamp;temperature;humidity
43946;DHT22;29599;51.196;4.428;2022-08-19T00:01:45;21.00;99.90
43946;DHT22;29599;51.196;4.428;2022-08-19T00:04:13;21.00;99.90
43946;DHT22;29599;51.196;4.428;2022-08-19T00:06:41;21.00;99.90
43946;DHT22;29599;51.196;4.428;2022-08-19T00:09:10;21.00;99.90
43946;DHT22;29599;51.196;4.428;2022-08-19T00:11:36;21.00;99.90
43946;DHT22;29599;51.196;4.428;2022-08-19T00:14:04;21.00;99.90
43946;DHT22;29599;51.196;4.428;2022-08-19T00:16:30;20.90;99.90
43946;DHT22;29599;51.196;4.428;2022-08-19T00:18:56;20.90;99.90
43946;DHT22;29599;51.196;4.428;2022-08-19T00:21:23;20.90;99.90
43946;DHT22;29599;51.196;4.428;2022-08-19T00:23:50;20.90;99.90
43946;DHT22;29599;51.196;4.428;2022-08-19T00:26:16;20.90;99.90
43946;DHT22;29599;51.196;4.428;2022-08-19T00:28:41;20.90;99.90
43946;DHT22;29599;51.196;4.428;2022-08-19T00:31:08;20.80;99.90
43946;DHT22;29599;51.196;4.428;2022-08-19T00:33:35;20.90;99.90
43946;DHT22;29599;51.196;4.428;2022-08-19T00:36:02;20.80;99.90
43946;DHT22;29599;51.196;4.428;2022-08-19T00:38:30;20.70;99.90
43946;DHT22;29599;51.196;4.428;2022-08-19T00:40:56;20.80;99.90
43946;DHT22;29599;51.196;4.428;2022-08-19T00:43:24;20.70;99.90
43946;DHT22;29599;51.196;4.428;2022-08-19T00:45:51;20.70;99.90
43946;DHT22;29599;51.196;4.428;2022-08-19T00:48:18;20.70;99.90
43946;DHT22;29599;51.196;4.428;2022-08-19T00:50:45;20.70;99.90
43946;DHT22;29599;51.196;4.428;2022-08-19T00:53:12;20.70;99.90
43946;DHT22;29599;51.196;4.428;2022-08-19T00:55:42;20.60;99.90
43946;DHT22;29599;51.196;4.428;2022-08-19T00:58:10;20.60;99.90
43946;DHT22;29599;51.196;4.428;2022-08-19T01:00:38;20.50;99.90
43946;DHT22;29599;51.196;4.428;2022-08-19T01:03:07;20.50;99.90
43946;DHT22;29599;51.196;4.428;2022-08-19T01:05:34;20.60;99.90
43946;DHT22;29599;51.196;4.428;2022-08-19T01:08:02;20.50;99.90
43946;DHT22;29599;51.196;4.428;2022-08-19T01:10:32;20.50;99.90
43946;DHT22;29599;51.196;4.428;2022-08-19T01:12:59;20.50;99.90
43946;DHT22;29599;51.196;4.428;2022-08-19T01:15:32;20.40;99.90
43946;DHT22;29599;51.196;4.428;2022-08-19T01:18:07;20.40;99.90
43946;DHT22;29599;51.196;4.428;2022-08-19T01:20:33;20.40;99.90
43946;DHT22;29599;51.196;4.428;2022-08-19T01:23:00;20.30;99.90
43946;DHT22;29599;51.196;4.428;2022-08-19T01:25:44;20.30;99.90
43946;DHT22;29599;51.196;4.428;2022-08-19T01:28:23;20.30;99.90
43946;DHT22;29599;51.196;4.428;2022-08-19T01:30:49;20.30;99.90
43946;DHT22;29599;51.196;4.428;2022-08-19T01:33:15;20.30;99.90
43946;DHT22;29599;51.196;4.428;2022-08-19T01:35:41;20.20;99.90
43946;DHT22;29599;51.196;4.428;2022-08-19T01:38:10;20.20;99.90
43946;DHT22;29599;51.196;4.428;2022-08-19T01:40:38;20.30;99.90
43946;DHT22;29599;51.196;4.428;2022-08-19T01:43:06;20.20;99.90
43946;DHT22;29599;51.196;4.428;2022-08-19T01:45:34;20.20;99.90
43946;DHT22;29599;51.196;4.428;2022-08-19T01:48:01;20.20;99.90
43946;DHT22;29599;51.196;4.428;2022-08-19T01:50:27;20.20;99.90
43946;DHT22;29599;51.196;4.428;2022-08-19T01:52:53;20.20;99.90
43946;DHT22;29599;51.196;4.428;2022-08-19T01:55:21;20.30;99.90
43946;DHT22;29599;51.196;4.428;2022-08-19T01:57:52;20.20;99.90
43946;DHT22;29599;51.196;4.428;2022-08-19T02:00:22;20.20;99.90
43946;DHT22;29599;51.196;4.428;2022-08-19T02:02:48;20.10;99.90
43946;DHT22;29599;51.196;4.428;2022-08-19T02:05:13;20.20;99.90
43946;DHT22;29599;51.196;4.428;2022-08-19T02:07:40;20.20;99.90
43946;DHT22;29599;51.196;4.428;2022-08-19T02:10:13;20.20;99.90
43946;DHT22;29599;51.196;4.428;2022-08-19T02:12:39;20.20;99.90
43946;DHT22;29599;51.196;4.428;2022-08-19T02:15:05;20.10;99.90
43946;DHT22;29599;51.196;4.428;2022-08-19T02:17:32;20.10;99.90
43946;DHT22;29599;51.196;4.428;2022-08-19T02:19:58;20.10;99.90
43946;DHT22;29599;51.196;4.428;2022-08-19T02:22:25;20.00;99.90
43946;DHT22;29599;51.196;4.428;2022-08-19T02:24:54;20.00;99.90
43946;DHT22;29599;51.196;4.428;2022-08-19T02:27:21;19.90;99.90
43946;DHT22;29599;51.196;4.428;2022-08-19T02:29:48;19.90;99.90
43946;DHT22;29599;51.196;4.428;2022-08-19T02:32:15;19.90;99.90
43946;DHT22;29599;51.196;4.428;2022-08-19T02:34:41;19.90;99.90
43946;DHT22;29599;51.196;4.428;2022-08-19T02:37:07;19.90;99.90
43946;DHT22;29599;51.196;4.428;2022-08-19T02:39:56;19.80;99.90
43946;DHT22;29599;51.196;4.428;2022-08-19T02:42:22;19.80;99.90
43946;DHT22;29599;51.196;4.428;2022-08-19T02:44:47;19.80;99.90
43946;DHT22;29599;51.196;4.428;2022-08-19T02:47:13;19.80;99.90
43946;DHT22;29599;51.196;4.428;2022-08-19T02:49:40;19.70;99.90
43946;DHT22;29599;51.196;4.428;2022-08-19T02:52:06;19.70;99.90
43946;DHT22;29599;51.196;4.428;2022-08-19T02:54:31;19.70;99.90
43946;DHT22;29599;51.196;4.428;2022-08-19T02:56:57;19.70;99.90
43946;DHT22;29599;51.196;4.428;2022-08-19T02:59:23;19.70;99.90
43946;DHT22;29599;51.196;4.428;2022-08-19T03:01:51;19.70;99.90
43946;DHT22;29599;51.196;4.428;2022-08-19T03:04:16;19.70;99.90
43946;DHT22;29599;51.196;4.428;2022-08-19T03:06:43;19.70;99.90
43946;DHT22;29599;51.196;4.428;2022-08-19T03:09:10;19.70;99.90
43946;DHT22;29599;51.196;4.428;2022-08-19T03:11:36;19.70;99.90
43946;DHT22;29599;51.196;4.428;2022-08-19T03:14:05;19.70;99.90
43946;DHT22;29599;51.196;4.428;2022-08-19T03:16:33;19.60;99.90
43946;DHT22;29599;51.196;4.428;2022-08-19T03:19:00;19.60;99.90
43946;DHT22;29599;51.196;4.428;2022-08-19T03:21:28;19.60;99.90
43946;DHT22;29599;51.196;4.428;2022-08-19T03:23:55;19.60;99.90
43946;DHT22;29599;51.196;4.428;2022-08-19T03:26:21;19.60;99.90
43946;DHT22;29599;51.196;4.428;2022-08-19T03:28:47;19.60;99.90
43946;DHT22;29599;51.196;4.428;2022-08-19T03:31:17;19.50;99.90
43946;DHT22;29599;51.196;4.428;2022-08-19T03:33:44;19.60;99.90
43946;DHT22;29599;51.196;4.428;2022-08-19T03:36:12;19.50;99.90
43946;DHT22;29599;51.196;4.428;2022-08-19T03:38:41;19.50;99.90
43946;DHT22;29599;51.196;4.428;2022-08-19T03:41:09;19.50;99.90
43946;DHT22;29599;51.196;4.428;2022-08-19T03:43:39;19.50;99.90
43946;DHT22;29599;51.196;4.428;2022-08-19T03:46:14;19.40;99.90
43946;DHT22;29599;51.196;4.428;2022-08-19T03:48:40;19.40;99.90
43946;DHT22;29599;51.196;4.428;2022-08-19T03:51:07;19.30;99.90
43946;DHT22;29599;51.196;4.428;2022-08-19T03:53:34;19.30;99.90
43946;DHT22;29599;51.196;4.428;2022-08-19T03:56:00;19.30;99.90
43946;DHT22;29599;51.196;4.428;2022-08-19T03:58:27;19.30;99.90
43946;DHT22;29599;51.196;4.428;2022-08-19T04:00:55;19.30;99.90
43946;DHT22;29599;51.196;4.428;2022-08-19T04:03:21;19.30;99.90
43946;DHT22;29599;51.196;4.428;2022-08-19T04:05:46;19.30;99.90
43946;DHT22;29599;51.196;4.428;2022-08-19T04:08:13;19.30;99.90
43946;DHT22;29599;51.196;4.428;2022-08-19T04:10:38;19.20;99.90
43946;DHT22;29599;51.196;4.428;2022-08-19T04:13:06;19.20;99.90
43946;DHT22;29599;51.196;4.428;2022-08-19T04:15:32;19.20;99.90
43946;DHT22;29599;51.196;4.428;2022-08-19T04:18:04;19.20;99.90
43946;DHT22;29599;51.196;4.428;2022-08-19T04:20:31;19.10;99.90
43946;DHT22;29599;51.196;4.428;2022-08-19T04:22:57;19.20;99.90
43946;DHT22;29599;51.196;4.428;2022-08-19T04:25:22;19.10;99.90
43946;DHT22;29599;51.196;4.428;2022-08-19T04:27:48;19.10;99.90
43946;DHT22;29599;51.196;4.428;2022-08-19T04:30:14;19.00;99.90
43946;DHT22;29599;51.196;4.428;2022-08-19T04:32:40;19.10;99.90
43946;DHT22;29599;51.196;4.428;2022-08-19T04:35:06;19.00;99.90
43946;DHT22;29599;51.196;4.428;2022-08-19T04:37:32;19.00;99.90
43946;DHT22;29599;51.196;4.428;2022-08-19T04:39:58;19.00;99.90
43946;DHT22;29599;51.196;4.428;2022-08-19T04:42:43;18.90;99.90
43946;DHT22;29599;51.196;4.428;2022-08-19T04:45:13;19.00;99.90
43946;DHT22;29599;51.196;4.428;2022-08-19T04:47:41;19.00;99.90
43946;DHT22;29599;51.196;4.428;2022-08-19T04:50:08;18.90;99.90
43946;DHT22;29599;51.196;4.428;2022-08-19T04:52:38;18.90;99.90
43946;DHT22;29599;51.196;4.428;2022-08-19T04:55:09;18.90;99.90
43946;DHT22;29599;51.196;4.428;2022-08-19T04:57:36;18.90;99.90
43946;DHT22;29599;51.196;4.428;2022-08-19T05:00:05;18.90;99.90
43946;DHT22;29599;51.196;4.428;2022-08-19T05:02:31;18.90;99.90
43946;DHT22;29599;51.196;4.428;2022-08-19T05:04:58;18.90;99.90
43946;DHT22;29599;51.196;4.428;2022-08-19T05:07:26;18.90;99.90
43946;DHT22;29599;51.196;4.428;2022-08-19T05:09:52;18.90;99.90
43946;DHT22;29599;51.196;4.428;2022-08-19T05:12:18;18.90;99.90
43946;DHT22;29599;51.196;4.428;2022-08-19T05:14:45;18.80;99.90
43946;DHT22;29599;51.196;4.428;2022-08-19T05:17:13;18.90;99.90
43946;DHT22;29599;51.196;4.428;2022-08-19T05:19:38;18.90;99.90
43946;DHT22;29599;51.196;4.428;2022-08-19T05:22:23;18.90;99.90
43946;DHT22;29599;51.196;4.428;2022-08-19T05:24:58;18.90;99.90
43946;DHT22;29599;51.196;4.428;2022-08-19T05:27:25;18.90;99.90
43946;DHT22;29599;51.196;4.428;2022-08-19T05:29:51;18.90;99.90
43946;DHT22;29599;51.196;4.428;2022-08-19T05:32:17;18.90;99.90
43946;DHT22;29599;51.196;4.428;2022-08-19T05:34:42;18.90;99.90
43946;DHT22;29599;51.196;4.428;2022-08-19T05:37:08;18.90;99.90
43946;DHT22;29599;51.196;4.428;2022-08-19T05:39:35;18.90;99.90
43946;DHT22;29599;51.196;4.428;2022-08-19T05:42:05;19.00;99.90
43946;DHT22;29599;51.196;4.428;2022-08-19T05:44:35;19.00;99.90
43946;DHT22;29599;51.196;4.428;2022-08-19T05:47:03;19.10;99.90
43946;DHT22;29599;51.196;4.428;2022-08-19T05:49:31;19.10;99.90
43946;DHT22;29599;51.196;4.428;2022-08-19T05:51:57;19.00;99.90
43946;DHT22;29599;51.196;4.428;2022-08-19T05:54:25;19.00;99.90
43946;DHT22;29599;51.196;4.428;2022-08-19T05:56:51;19.10;99.90
43946;DHT22;29599;51.196;4.428;2022-08-19T05:59:19;19.20;99.90
43946;DHT22;29599;51.196;4.428;2022-08-19T06:01:47;19.20;99.90
43946;DHT22;29599;51.196;4.428;2022-08-19T06:04:16;19.20;99.90
43946;DHT22;29599;51.196;4.428;2022-08-19T06:06:47;19.30;99.90
43946;DHT22;29599;51.196;4.428;2022-08-19T06:09:14;19.40;99.90
43946;DHT22;29599;51.196;4.428;2022-08-19T06:11:49;19.40;99.90
43946;DHT22;29599;51.196;4.428;2022-08-19T06:14:17;19.50;99.90
43946;DHT22;29599;51.196;4.428;2022-08-19T06:16:44;19.50;99.90
43946;DHT22;29599;51.196;4.428;2022-08-19T06:19:15;19.40;99.90
43946;DHT22;29599;51.196;4.428;2022-08-19T06:21:44;19.50;99.90
43946;DHT22;29599;51.196;4.428;2022-08-19T06:24:12;19.50;99.90
43946;DHT22;29599;51.196;4.428;2022-08-19T06:26:41;19.50;99.90
43946;DHT22;29599;51.196;4.428;2022-08-19T06:29:08;19.50;99.90
43946;DHT22;29599;51.196;4.428;2022-08-19T06:31:35;19.60;99.90
43946;DHT22;29599;51.196;4.428;2022-08-19T06:34:04;19.60;99.90
43946;DHT22;29599;51.196;4.428;2022-08-19T06:36:32;19.60;99.90
43946;DHT22;29599;51.196;4.428;2022-08-19T06:39:03;19.60;99.90
43946;DHT22;29599;51.196;4.428;2022-08-19T06:41:29;19.50;99.90
43946;DHT22;29599;51.196;4.428;2022-08-19T06:43:56;19.60;99.90
43946;DHT22;29599;51.196;4.428;2022-08-19T06:46:22;19.50;99.90
43946;DHT22;29599;51.196;4.428;2022-08-19T06:48:48;19.50;99.90
43946;DHT22;29599;51.196;4.428;2022-08-19T06:51:16;19.50;99.90
43946;DHT22;29599;51.196;4.428;2022-08-19T06:53:48;19.50;99.90
43946;DHT22;29599;51.196;4.428;2022-08-19T06:56:16;19.50;99.90
43946;DHT22;29599;51.196;4.428;2022-08-19T06:58:42;19.50;99.90
43946;DHT22;29599;51.196;4.428;2022-08-19T07:01:08;19.60;99.90
43946;DHT22;29599;51.196;4.428;2022-08-19T07:03:35;19.60;99.90
43946;DHT22;29599;51.196;4.428;2022-08-19T07:06:06;19.60;99.90
43946;DHT22;29599;51.196;4.428;2022-08-19T07:08:33;19.60;99.90
43946;DHT22;29599;51.196;4.428;2022-08-19T07:10:59;19.60;99.90
43946;DHT22;29599;51.196;4.428;2022-08-19T07:13:25;19.60;99.90
43946;DHT22;29599;51.196;4.428;2022-08-19T07:15:51;19.70;99.90
43946;DHT22;29599;51.196;4.428;2022-08-19T07:18:20;19.80;99.90
43946;DHT22;29599;51.196;4.428;2022-08-19T07:20:47;19.80;99.90
43946;DHT22;29599;51.196;4.428;2022-08-19T07:23:13;19.90;99.90
43946;DHT22;29599;51.196;4.428;2022-08-19T07:25:39;19.90;99.90
43946;DHT22;29599;51.196;4.428;2022-08-19T07:28:05;19.90;99.90
43946;DHT22;29599;51.196;4.428;2022-08-19T07:30:32;19.90;99.90
43946;DHT22;29599;51.196;4.428;2022-08-19T07:33:01;19.90;99.90
43946;DHT22;29599;51.196;4.428;2022-08-19T07:35:26;19.90;99.90
43946;DHT22;29599;51.196;4.428;2022-08-19T07:37:53;19.90;99.90
43946;DHT22;29599;51.196;4.428;2022-08-19T07:40:19;19.90;99.90
43946;DHT22;29599;51.196;4.428;2022-08-19T07:42:44;19.90;99.90
43946;DHT22;29599;51.196;4.428;2022-08-19T07:45:10;19.90;99.90
43946;DHT22;29599;51.196;4.428;2022-08-19T07:47:36;19.90;99.90
43946;DHT22;29599;51.196;4.428;2022-08-19T07:50:03;20.00;99.90
43946;DHT22;29599;51.196;4.428;2022-08-19T07:52:29;20.00;99.90
43946;DHT22;29599;51.196;4.428;2022-08-19T07:54:55;20.10;99.90
43946;DHT22;29599;51.196;4.428;2022-08-19T07:57:23;20.30;99.90
43946;DHT22;29599;51.196;4.428;2022-08-19T07:59:56;20.40;99.90
43946;DHT22;29599;51.196;4.428;2022-08-19T08:02:21;20.60;99.90
43946;DHT22;29599;51.196;4.428;2022-08-19T08:04:47;20.70;99.90
43946;DHT22;29599;51.196;4.428;2022-08-19T08:07:31;20.80;99.90
43946;DHT22;29599;51.196;4.428;2022-08-19T08:10:15;20.90;99.90
43946;DHT22;29599;51.196;4.428;2022-08-19T08:12:41;20.80;99.90
43946;DHT22;29599;51.196;4.428;2022-08-19T08:15:11;20.70;99.90
43946;DHT22;29599;51.196;4.428;2022-08-19T08:17:37;20.60;99.90
43946;DHT22;29599;51.196;4.428;2022-08-19T08:20:05;20.50;99.90
43946;DHT22;29599;51.196;4.428;2022-08-19T08:22:34;20.50;99.90
43946;DHT22;29599;51.196;4.428;2022-08-19T08:25:21;20.50;99.90
43946;DHT22;29599;51.196;4.428;2022-08-19T08:27:48;20.50;99.90
43946;DHT22;29599;51.196;4.428;2022-08-19T08:30:20;20.50;99.90
43946;DHT22;29599;51.196;4.428;2022-08-19T08:32:46;20.50;99.90
43946;DHT22;29599;51.196;4.428;2022-08-19T08:35:15;20.50;99.90
43946;DHT22;29599;51.196;4.428;2022-08-19T08:37:44;20.50;99.90
43946;DHT22;29599;51.196;4.428;2022-08-19T08:40:22;20.60;99.90
43946;DHT22;29599;51.196;4.428;2022-08-19T08:43:06;20.60;99.90
43946;DHT22;29599;51.196;4.428;2022-08-19T08:45:36;20.70;99.90
43946;DHT22;29599;51.196;4.428;2022-08-19T08:48:20;20.70;99.90
43946;DHT22;29599;51.196;4.428;2022-08-19T08:50:49;20.80;99.90
43946;DHT22;29599;51.196;4.428;2022-08-19T08:53:19;20.70;99.90
43946;DHT22;29599;51.196;4.428;2022-08-19T08:55:46;20.70;99.90
43946;DHT22;29599;51.196;4.428;2022-08-19T08:58:17;20.80;99.90
43946;DHT22;29599;51.196;4.428;2022-08-19T09:00:45;20.70;99.90
43946;DHT22;29599;51.196;4.428;2022-08-19T09:03:26;20.60;99.90
43946;DHT22;29599;51.196;4.428;2022-08-19T09:08:33;20.50;99.90
43946;DHT22;29599;51.196;4.428;2022-08-19T09:11:05;20.50;99.90
43946;DHT22;29599;51.196;4.428;2022-08-19T09:16:32;20.60;99.90
43946;DHT22;29599;51.196;4.428;2022-08-19T09:19:04;20.60;99.90
43946;DHT22;29599;51.196;4.428;2022-08-19T09:21:31;20.60;99.90
43946;DHT22;29599;51.196;4.428;2022-08-19T09:23:57;20.60;99.90
43946;DHT22;29599;51.196;4.428;2022-08-19T09:26:24;20.70;99.90
43946;DHT22;29599;51.196;4.428;2022-08-19T09:28:52;20.80;99.90
43946;DHT22;29599;51.196;4.428;2022-08-19T09:31:26;20.80;99.90
43946;DHT22;29599;51.196;4.428;2022-08-19T09:33:53;20.80;99.90
43946;DHT22;29599;51.196;4.428;2022-08-19T09:36:23;20.90;99.90
43946;DHT22;29599;51.196;4.428;2022-08-19T09:38:50;20.80;99.90
43946;DHT22;29599;51.196;4.428;2022-08-19T09:41:19;20.80;99.90
43946;DHT22;29599;51.196;4.428;2022-08-19T09:43:47;20.90;99.90
43946;DHT22;29599;51.196;4.428;2022-08-19T09:46:13;20.90;99.90
43946;DHT22;29599;51.196;4.428;2022-08-19T09:48:40;20.90;99.90
43946;DHT22;29599;51.196;4.428;2022-08-19T09:51:09;20.90;99.90
43946;DHT22;29599;51.196;4.428;2022-08-19T09:53:36;20.90;99.90
43946;DHT22;29599;51.196;4.428;2022-08-19T09:56:03;21.00;99.90
43946;DHT22;29599;51.196;4.428;2022-08-19T09:58:29;21.10;99.90
43946;DHT22;29599;51.196;4.428;2022-08-19T10:00:57;21.20;99.90
43946;DHT22;29599;51.196;4.428;2022-08-19T10:03:23;21.30;99.90
43946;DHT22;29599;51.196;4.428;2022-08-19T10:05:49;21.50;99.90
43946;DHT22;29599;51.196;4.428;2022-08-19T10:08:41;21.80;99.90
43946;DHT22;29599;51.196;4.428;2022-08-19T10:11:07;21.90;99.90
43946;DHT22;29599;51.196;4.428;2022-08-19T10:13:34;21.90;99.90
43946;DHT22;29599;51.196;4.428;2022-08-19T10:16:07;21.90;99.90
43946;DHT22;29599;51.196;4.428;2022-08-19T10:18:34;21.80;99.90
43946;DHT22;29599;51.196;4.428;2022-08-19T10:21:08;21.70;99.90
43946;DHT22;29599;51.196;4.428;2022-08-19T10:23:37;21.50;99.90
43946;DHT22;29599;51.196;4.428;2022-08-19T10:26:05;21.50;99.90
43946;DHT22;29599;51.196;4.428;2022-08-19T10:28:34;21.50;99.90
43946;DHT22;29599;51.196;4.428;2022-08-19T10:31:11;21.40;99.90
43946;DHT22;29599;51.196;4.428;2022-08-19T10:33:38;21.40;99.90
43946;DHT22;29599;51.196;4.428;2022-08-19T10:36:07;21.40;99.90
43946;DHT22;29599;51.196;4.428;2022-08-19T10:38:34;21.50;99.90
43946;DHT22;29599;51.196;4.428;2022-08-19T10:41:13;21.50;99.90
43946;DHT22;29599;51.196;4.428;2022-08-19T10:43:40;21.50;99.90
43946;DHT22;29599;51.196;4.428;2022-08-19T10:46:07;21.50;99.90
43946;DHT22;29599;51.196;4.428;2022-08-19T10:48:33;21.50;99.90
43946;DHT22;29599;51.196;4.428;2022-08-19T10:51:00;21.60;99.90
43946;DHT22;29599;51.196;4.428;2022-08-19T10:53:44;21.50;99.90
43946;DHT22;29599;51.196;4.428;2022-08-19T10:56:10;21.50;99.90
43946;DHT22;29599;51.196;4.428;2022-08-19T10:58:54;21.50;99.90
43946;DHT22;29599;51.196;4.428;2022-08-19T11:01:22;21.40;99.90
43946;DHT22;29599;51.196;4.428;2022-08-19T11:03:47;21.40;99.90
43946;DHT22;29599;51.196;4.428;2022-08-19T11:06:13;21.40;99.90
43946;DHT22;29599;51.196;4.428;2022-08-19T11:08:39;21.40;99.90
43946;DHT22;29599;51.196;4.428;2022-08-19T11:11:05;21.40;99.90
43946;DHT22;29599;51.196;4.428;2022-08-19T11:13:33;21.40;99.90
43946;DHT22;29599;51.196;4.428;2022-08-19T11:16:05;21.50;99.90
43946;DHT22;29599;51.196;4.428;2022-08-19T11:18:32;21.60;99.90
43946;DHT22;29599;51.196;4.428;2022-08-19T11:21:26;21.60;99.90
43946;DHT22;29599;51.196;4.428;2022-08-19T11:23:55;21.60;99.90
43946;DHT22;29599;51.196;4.428;2022-08-19T11:26:22;21.70;99.90
43946;DHT22;29599;51.196;4.428;2022-08-19T11:28:48;21.70;99.90
43946;DHT22;29599;51.196;4.428;2022-08-19T11:31:19;21.80;99.90
43946;DHT22;29599;51.196;4.428;2022-08-19T11:33:46;21.80;99.90
43946;DHT22;29599;51.196;4.428;2022-08-19T11:36:12;21.80;99.90
43946;DHT22;29599;51.196;4.428;2022-08-19T11:38:38;21.80;99.90
43946;DHT22;29599;51.196;4.428;2022-08-19T11:41:06;21.80;99.90
43946;DHT22;29599;51.196;4.428;2022-08-19T11:43:34;21.80;99.90
43946;DHT22;29599;51.196;4.428;2022-08-19T11:46:03;21.90;99.90
43946;DHT22;29599;51.196;4.428;2022-08-19T11:48:29;21.90;99.90
43946;DHT22;29599;51.196;4.428;2022-08-19T11:50:54;22.10;99.90
43946;DHT22;29599;51.196;4.428;2022-08-19T11:53:23;22.00;99.90
43946;DHT22;29599;51.196;4.428;2022-08-19T11:55:50;22.20;99.90
43946;DHT22;29599;51.196;4.428;2022-08-19T11:58:19;22.20;99.90
43946;DHT22;29599;51.196;4.428;2022-08-19T12:00:44;22.20;99.90
43946;DHT22;29599;51.196;4.428;2022-08-19T12:03:11;22.30;99.90
43946;DHT22;29599;51.196;4.428;2022-08-19T12:05:39;22.30;99.90
43946;DHT22;29599;51.196;4.428;2022-08-19T12:08:05;22.30;99.90
43946;DHT22;29599;51.196;4.428;2022-08-19T12:10:31;22.30;99.90
43946;DHT22;29599;51.196;4.428;2022-08-19T12:12:57;22.30;99.90
43946;DHT22;29599;51.196;4.428;2022-08-19T12:15:23;22.20;99.90
43946;DHT22;29599;51.196;4.428;2022-08-19T12:17:48;22.20;99.90
43946;DHT22;29599;51.196;4.428;2022-08-19T12:20:14;22.30;99.90
43946;DHT22;29599;51.196;4.428;2022-08-19T12:22:42;22.30;99.90
43946;DHT22;29599;51.196;4.428;2022-08-19T12:25:10;22.30;99.90
43946;DHT22;29599;51.196;4.428;2022-08-19T12:27:37;22.40;99.90
43946;DHT22;29599;51.196;4.428;2022-08-19T12:30:04;22.40;99.90
43946;DHT22;29599;51.196;4.428;2022-08-19T12:32:30;22.50;99.90
43946;DHT22;29599;51.196;4.428;2022-08-19T12:34:56;22.50;99.90
43946;DHT22;29599;51.196;4.428;2022-08-19T12:37:21;22.60;99.90
43946;DHT22;29599;51.196;4.428;2022-08-19T12:39:47;22.60;99.90
43946;DHT22;29599;51.196;4.428;2022-08-19T12:42:14;22.60;99.90
43946;DHT22;29599;51.196;4.428;2022-08-19T12:44:41;22.60;99.90
43946;DHT22;29599;51.196;4.428;2022-08-19T12:47:08;22.60;99.90
43946;DHT22;29599;51.196;4.428;2022-08-19T12:49:34;22.60;99.90
43946;DHT22;29599;51.196;4.428;2022-08-19T12:52:02;22.60;99.90
43946;DHT22;29599;51.196;4.428;2022-08-19T12:54:29;22.70;99.90
43946;DHT22;29599;51.196;4.428;2022-08-19T12:56:56;22.70;99.90
43946;DHT22;29599;51.196;4.428;2022-08-19T12:59:22;22.70;99.90
43946;DHT22;29599;51.196;4.428;2022-08-19T13:01:48;22.70;99.90
43946;DHT22;29599;51.196;4.428;2022-08-19T13:04:14;22.70;99.90
43946;DHT22;29599;51.196;4.428;2022-08-19T13:06:41;22.80;99.90
43946;DHT22;29599;51.196;4.428;2022-08-19T13:09:08;22.80;99.90
43946;DHT22;29599;51.196;4.428;2022-08-19T13:11:33;22.70;99.90
43946;DHT22;29599;51.196;4.428;2022-08-19T13:14:01;22.80;99.90
43946;DHT22;29599;51.196;4.428;2022-08-19T13:16:26;22.70;99.90
43946;DHT22;29599;51.196;4.428;2022-08-19T13:18:54;22.80;99.90
43946;DHT22;29599;51.196;4.428;2022-08-19T13:21:22;22.80;99.90
43946;DHT22;29599;51.196;4.428;2022-08-19T13:23:49;22.90;99.90
43946;DHT22;29599;51.196;4.428;2022-08-19T13:26:15;22.90;99.90
43946;DHT22;29599;51.196;4.428;2022-08-19T13:28:42;22.90;99.90
43946;DHT22;29599;51.196;4.428;2022-08-19T13:31:28;22.90;99.90
43946;DHT22;29599;51.196;4.428;2022-08-19T13:34:14;22.90;99.90
43946;DHT22;29599;51.196;4.428;2022-08-19T13:36:40;23.00;99.90
43946;DHT22;29599;51.196;4.428;2022-08-19T13:39:06;23.10;99.90
43946;DHT22;29599;51.196;4.428;2022-08-19T13:41:33;23.10;99.90
43946;DHT22;29599;51.196;4.428;2022-08-19T13:44:00;23.20;99.90
43946;DHT22;29599;51.196;4.428;2022-08-19T13:46:27;23.40;99.90
43946;DHT22;29599;51.196;4.428;2022-08-19T13:48:52;23.30;99.90
43946;DHT22;29599;51.196;4.428;2022-08-19T13:51:18;23.40;99.90
43946;DHT22;29599;51.196;4.428;2022-08-19T13:53:44;23.40;99.90
43946;DHT22;29599;51.196;4.428;2022-08-19T13:56:12;23.40;99.90
43946;DHT22;29599;51.196;4.428;2022-08-19T13:58:38;23.50;99.90
43946;DHT22;29599;51.196;4.428;2022-08-19T14:01:05;23.50;99.90
43946;DHT22;29599;51.196;4.428;2022-08-19T14:03:32;23.60;99.90
43946;DHT22;29599;51.196;4.428;2022-08-19T14:05:58;23.50;99.90
43946;DHT22;29599;51.196;4.428;2022-08-19T14:08:24;23.50;99.90
43946;DHT22;29599;51.196;4.428;2022-08-19T14:10:49;23.50;99.90
43946;DHT22;29599;51.196;4.428;2022-08-19T14:13:19;23.50;99.90
43946;DHT22;29599;51.196;4.428;2022-08-19T14:15:46;23.50;99.90
43946;DHT22;29599;51.196;4.428;2022-08-19T14:18:13;23.50;99.90
43946;DHT22;29599;51.196;4.428;2022-08-19T14:20:39;23.50;99.90
43946;DHT22;29599;51.196;4.428;2022-08-19T14:23:05;23.50;99.90
43946;DHT22;29599;51.196;4.428;2022-08-19T14:25:31;23.50;99.90
43946;DHT22;29599;51.196;4.428;2022-08-19T14:27:57;23.50;99.90
43946;DHT22;29599;51.196;4.428;2022-08-19T14:30:26;23.50;99.90
43946;DHT22;29599;51.196;4.428;2022-08-19T14:32:54;23.50;99.90
43946;DHT22;29599;51.196;4.428;2022-08-19T14:35:20;23.60;99.90
43946;DHT22;29599;51.196;4.428;2022-08-19T14:37:48;23.50;99.90
43946;DHT22;29599;51.196;4.428;2022-08-19T14:40:16;23.40;99.90
43946;DHT22;29599;51.196;4.428;2022-08-19T14:42:43;23.30;99.90
43946;DHT22;29599;51.196;4.428;2022-08-19T14:45:10;23.30;99.90
43946;DHT22;29599;51.196;4.428;2022-08-19T14:47:35;23.20;99.90
43946;DHT22;29599;51.196;4.428;2022-08-19T14:50:01;23.10;99.90
43946;DHT22;29599;51.196;4.428;2022-08-19T14:52:27;22.90;99.90
43946;DHT22;29599;51.196;4.428;2022-08-19T14:54:53;22.90;99.90
43946;DHT22;29599;51.196;4.428;2022-08-19T14:57:18;22.80;99.90
43946;DHT22;29599;51.196;4.428;2022-08-19T14:59:44;22.60;99.90
43946;DHT22;29599;51.196;4.428;2022-08-19T15:02:11;22.50;99.90
43946;DHT22;29599;51.196;4.428;2022-08-19T15:04:37;22.30;99.90
43946;DHT22;29599;51.196;4.428;2022-08-19T15:07:03;22.20;99.90
43946;DHT22;29599;51.196;4.428;2022-08-19T15:09:31;22.10;99.90
43946;DHT22;29599;51.196;4.428;2022-08-19T15:11:56;22.10;99.90
43946;DHT22;29599;51.196;4.428;2022-08-19T15:14:25;22.00;99.90
43946;DHT22;29599;51.196;4.428;2022-08-19T15:16:51;22.00;99.90
43946;DHT22;29599;51.196;4.428;2022-08-19T15:19:16;21.90;99.90
43946;DHT22;29599;51.196;4.428;2022-08-19T15:21:42;21.80;99.90
43946;DHT22;29599;51.196;4.428;2022-08-19T15:24:08;21.90;99.90
43946;DHT22;29599;51.196;4.428;2022-08-19T15:26:34;21.90;99.90
43946;DHT22;29599;51.196;4.428;2022-08-19T15:29:01;22.00;99.90
43946;DHT22;29599;51.196;4.428;2022-08-19T15:31:27;22.00;99.90
43946;DHT22;29599;51.196;4.428;2022-08-19T15:33:53;22.00;99.90
43946;DHT22;29599;51.196;4.428;2022-08-19T15:36:23;22.00;99.90
43946;DHT22;29599;51.196;4.428;2022-08-19T15:38:50;21.90;99.90
43946;DHT22;29599;51.196;4.428;2022-08-19T15:41:20;22.00;99.90